»·PEaware :: BAW44N EGLL-KSAN

BAW44N :: EGLL-KSAN

FLIGHT INFORMATION

Flight Status: Arrived
Operator:
British Airways
More flights by this operator :: More flights under this callsign
Pilot: Henderson P. (1210)
Aircraft: BOEING 747-400 (WINGLETS)
(B744)
More flights by this aircraft type
Origin: EGLL Heathrow
United Kingdom
Destination: KSAN San Diego Intl-Lindbergh
United States
More flights between these airports :: More routes between these airports
Route: +UMLA1G UMLAT T418 WELIN T420 TNT UN57 POL UN601 ABEVI UN590 GOW BALIX 64N020W 67N030W 69N040W 70N050W 70N060W ADSAM 69N070W 6630N08000W 6130N09000W YYQ YNE ISN MLS ODUCE BERYL J107 BLD HAKMN Q73 LVELL LUCKI1
File this flight plan on PilotEdge
Remarks:
Altitude:
(Current/Filed)
32,000ft
Speed:
(Current/Filed)
484kts
Departed: 19-Mar-19 06:11 AM
Arrived: 19-Mar-19 04:42 PM
Distance/Time
Traveled:
4752nm/10:31
Distance/Time
To Go:
Arrived

Flight Plot

Page will automatically refresh every two minutes.

Flight plan parsing failed; only flown route is shown


Map Options




Map Legend


Flown Route
Filed Route
Departure Airport
Arrival Airport
Navaid (VOR, NDB)
Fix

Horizontal Profiles

Position Reports

Time Latitude Longitude Heading Altitude Ground
Speed
19-Mar-19 05:15 51.472126 -0.480272 269 95ft 0kts
19-Mar-19 05:16 51.472126 -0.480272 269 95ft 0kts
19-Mar-19 05:17 51.472126 -0.480272 269 95ft 0kts
19-Mar-19 05:18 51.472126 -0.480272 269 95ft 0kts
19-Mar-19 05:19 51.472126 -0.480272 269 95ft 0kts
19-Mar-19 05:20 51.472126 -0.480272 269 95ft 0kts
19-Mar-19 05:21 51.472126 -0.480272 269 95ft 0kts
19-Mar-19 05:22 51.472126 -0.480272 269 95ft 0kts
19-Mar-19 05:23 51.472126 -0.480272 269 95ft 0kts
19-Mar-19 05:24 51.472126 -0.480272 269 95ft 0kts
19-Mar-19 05:25 51.472126 -0.480272 269 95ft 0kts
19-Mar-19 05:26 51.472126 -0.480272 269 95ft 0kts
19-Mar-19 05:27 51.472126 -0.480272 269 95ft 0kts
19-Mar-19 05:28 51.472126 -0.480272 269 95ft 0kts
19-Mar-19 05:29 51.472126 -0.480272 269 95ft 0kts
19-Mar-19 05:30 51.472126 -0.480272 269 95ft 0kts
19-Mar-19 05:31 51.472126 -0.480272 269 95ft 0kts
19-Mar-19 05:32 51.472126 -0.480272 269 95ft 0kts
19-Mar-19 05:34 51.472126 -0.480272 269 95ft 0kts
19-Mar-19 05:35 51.472126 -0.480272 269 95ft 0kts
19-Mar-19 05:36 51.472126 -0.480272 269 95ft 0kts
19-Mar-19 05:37 51.472126 -0.480272 269 95ft 0kts
19-Mar-19 05:38 51.472126 -0.480272 269 95ft 0kts
19-Mar-19 05:39 51.472126 -0.480272 269 95ft 0kts
19-Mar-19 05:40 51.472126 -0.480272 269 95ft 0kts
19-Mar-19 05:41 51.472126 -0.480272 269 95ft 0kts
19-Mar-19 05:42 51.472126 -0.480272 269 95ft 0kts
19-Mar-19 05:43 51.472126 -0.480272 269 95ft 0kts
19-Mar-19 05:44 51.472126 -0.480272 269 95ft 0kts
19-Mar-19 05:45 51.472126 -0.480272 269 95ft 0kts
19-Mar-19 05:46 51.472126 -0.480272 269 95ft 0kts
19-Mar-19 05:47 51.472126 -0.480272 269 95ft 0kts
19-Mar-19 05:48 51.472126 -0.480272 269 95ft 0kts
19-Mar-19 05:49 51.472126 -0.480272 269 95ft 0kts
19-Mar-19 05:50 51.472126 -0.480272 269 95ft 0kts
19-Mar-19 05:51 51.472126 -0.480272 269 95ft 0kts
19-Mar-19 05:52 51.472126 -0.480120 268 95ft 2kts
19-Mar-19 05:53 51.472235 -0.479121 241 95ft 2kts
19-Mar-19 05:53 51.472567 -0.478709 180 95ft 2kts
19-Mar-19 05:54 51.472645 -0.478707 180 95ft 0kts
19-Mar-19 05:56 51.472629 -0.478708 180 95ft 1kts
19-Mar-19 05:56 51.471357 -0.478707 180 95ft 8kts
19-Mar-19 05:57 51.469174 -0.478745 181 95ft 7kts
19-Mar-19 05:59 51.466532 -0.478148 86 95ft 13kts
19-Mar-19 05:59 51.466575 -0.468387 90 95ft 27kts
19-Mar-19 06:00 51.466625 -0.456969 91 95ft 25kts
19-Mar-19 06:01 51.466647 -0.447141 89 95ft 20kts
19-Mar-19 06:02 51.466676 -0.439090 89 95ft 16kts
19-Mar-19 06:03 51.466241 -0.436050 179 95ft 1kts
19-Mar-19 06:04 51.466232 -0.436050 179 95ft 0kts
19-Mar-19 06:05 51.466231 -0.436050 179 95ft 0kts
19-Mar-19 06:06 51.466230 -0.436050 179 95ft 0kts
19-Mar-19 06:07 51.466229 -0.436050 179 95ft 0kts
19-Mar-19 06:08 51.466228 -0.436050 179 95ft 0kts
19-Mar-19 06:09 51.465313 -0.436032 179 95ft 12kts
19-Mar-19 06:10 51.464924 -0.442203 269 96ft 73kts
19-Mar-19 06:11 51.465587 -0.506469 279 891ft 172kts
19-Mar-19 06:12 51.487678 -0.579323 295 2201ft 194kts
19-Mar-19 06:13 51.512117 -0.655392 297 3805ft 191kts
19-Mar-19 06:14 51.564806 -0.685581 354 4584ft 240kts
19-Mar-19 06:15 51.639148 -0.690333 354 6022ft 279kts
19-Mar-19 06:16 51.716945 -0.699152 354 7432ft 285kts
19-Mar-19 06:17 51.797260 -0.708135 354 7820ft 288kts
19-Mar-19 06:18 51.877612 -0.717219 354 10411ft 289kts
19-Mar-19 06:19 51.965736 -0.727217 355 11283ft 352kts
19-Mar-19 06:20 52.068388 -0.756532 341 12818ft 390kts
19-Mar-19 06:21 52.173030 -0.813229 341 15021ft 404kts
19-Mar-19 06:22 52.278281 -0.880751 330 17077ft 416kts
19-Mar-19 06:23 52.378653 -0.982547 329 18975ft 427kts
19-Mar-19 06:24 52.481344 -1.085681 329 20715ft 437kts
19-Mar-19 06:25 52.586404 -1.191438 329 22310ft 446kts
19-Mar-19 06:26 52.693221 -1.299668 329 23724ft 455kts
19-Mar-19 06:27 52.801985 -1.410247 329 25041ft 462kts
19-Mar-19 06:28 52.912178 -1.523094 328 26328ft 464kts
19-Mar-19 06:29 53.020653 -1.635391 328 27862ft 458kts
19-Mar-19 06:30 53.135712 -1.722191 339 29195ft 452kts
19-Mar-19 06:31 53.252832 -1.793836 338 30440ft 447kts
19-Mar-19 06:32 53.368582 -1.866330 338 31566ft 442kts
19-Mar-19 06:33 53.484031 -1.938013 338 32331ft 441kts
19-Mar-19 06:34 53.598589 -2.010558 338 32329ft 439kts
19-Mar-19 06:35 53.713195 -2.083706 337 32318ft 439kts
19-Mar-19 06:36 53.826922 -2.159807 336 32309ft 440kts
19-Mar-19 06:37 53.940278 -2.237387 336 32298ft 439kts
19-Mar-19 06:38 54.053410 -2.315352 336 32307ft 440kts
19-Mar-19 06:39 54.166950 -2.394199 336 32292ft 440kts
19-Mar-19 06:40 54.280509 -2.472724 336 32288ft 440kts
19-Mar-19 06:41 54.393754 -2.552233 335 32275ft 439kts
19-Mar-19 06:42 54.506896 -2.631999 335 32265ft 440kts
19-Mar-19 06:43 54.620386 -2.712429 335 32254ft 440kts
19-Mar-19 06:44 54.729666 -2.805045 323 32246ft 438kts
19-Mar-19 06:45 54.824529 -2.936563 319 32241ft 436kts
19-Mar-19 06:46 54.918632 -3.069735 319 32238ft 436kts
19-Mar-19 06:47 55.012989 -3.202066 319 32237ft 436kts
19-Mar-19 06:48 55.107402 -3.334748 319 32225ft 435kts
19-Mar-19 06:49 55.201490 -3.468548 318 32227ft 435kts
19-Mar-19 06:50 55.295312 -3.602908 318 32226ft 434kts
19-Mar-19 06:51 55.388690 -3.737489 318 32224ft 434kts
19-Mar-19 06:52 55.481580 -3.872215 317 32222ft 433kts
19-Mar-19 06:53 55.574410 -4.007707 317 32224ft 432kts
19-Mar-19 06:54 55.667200 -4.143015 317 32226ft 432kts
19-Mar-19 06:55 55.759497 -4.279851 316 32228ft 432kts
19-Mar-19 06:56 55.851601 -4.417374 316 32230ft 432kts
19-Mar-19 06:57 55.942199 -4.558590 315 33019ft 431kts
19-Mar-19 06:58 56.031089 -4.700522 314 34222ft 429kts
19-Mar-19 06:59 56.119544 -4.842679 314 34217ft 427kts
19-Mar-19 07:00 56.208958 -4.984232 314 34208ft 428kts
19-Mar-19 07:01 56.297874 -5.127202 314 34202ft 428kts
19-Mar-19 07:02 56.386468 -5.271024 313 34200ft 429kts
19-Mar-19 07:03 56.474907 -5.415621 313 34200ft 429kts
19-Mar-19 07:04 56.563283 -5.561088 313 34199ft 429kts
19-Mar-19 07:05 56.651482 -5.707225 313 34195ft 429kts
19-Mar-19 07:06 56.739668 -5.854314 313 34166ft 429kts
19-Mar-19 07:07 56.827616 -6.001990 313 34150ft 429kts
19-Mar-19 07:08 56.915209 -6.150053 312 34136ft 429kts
19-Mar-19 07:09 57.002541 -6.298667 312 34125ft 428kts
19-Mar-19 07:10 57.089666 -6.447923 311 34111ft 428kts
19-Mar-19 07:11 57.176322 -6.597378 311 34100ft 427kts
19-Mar-19 07:12 57.262867 -6.747666 311 34092ft 427kts
19-Mar-19 07:13 57.349163 -6.898532 311 34083ft 426kts
19-Mar-19 07:14 57.434831 -7.049319 310 34082ft 425kts
19-Mar-19 07:15 57.520579 -7.201271 310 34081ft 424kts
19-Mar-19 07:16 57.605460 -7.352720 310 34081ft 423kts
19-Mar-19 07:17 57.690080 -7.504734 309 34078ft 421kts
19-Mar-19 07:18 57.774167 -7.656828 309 34075ft 420kts
19-Mar-19 07:19 57.857902 -7.809317 309 34072ft 419kts
19-Mar-19 07:20 57.941447 -7.962509 308 34069ft 418kts
19-Mar-19 07:21 58.024480 -8.115807 308 34066ft 418kts
19-Mar-19 07:22 58.107353 -8.269860 308 34065ft 418kts
19-Mar-19 07:23 58.189997 -8.424556 308 34060ft 418kts
19-Mar-19 07:24 58.272528 -8.580112 307 34057ft 418kts
19-Mar-19 07:25 58.355059 -8.736757 307 34048ft 419kts
19-Mar-19 07:26 58.437256 -8.893861 306 34037ft 419kts
19-Mar-19 07:27 58.519496 -9.052159 306 34024ft 419kts
19-Mar-19 07:28 58.601572 -9.211261 306 34014ft 419kts
19-Mar-19 07:29 58.683208 -9.370630 305 34003ft 419kts
19-Mar-19 07:30 58.764610 -9.530679 305 34008ft 418kts
19-Mar-19 07:31 58.846411 -9.691138 305 33981ft 419kts
19-Mar-19 07:32 58.927147 -9.853137 304 33966ft 419kts
19-Mar-19 07:33 59.009001 -10.014891 308 33951ft 423kts
19-Mar-19 07:34 59.100329 -10.161970 310 33934ft 429kts
19-Mar-19 07:35 59.191815 -10.309711 308 33922ft 418kts
19-Mar-19 07:36 59.280170 -10.453480 309 33902ft 412kts
19-Mar-19 07:37 59.368858 -10.596199 308 33887ft 414kts
19-Mar-19 07:38 59.457158 -10.740907 308 33873ft 413kts
19-Mar-19 07:39 59.545147 -10.886480 307 33861ft 413kts
19-Mar-19 07:40 59.632798 -11.032622 307 33846ft 412kts
19-Mar-19 07:42 59.720445 -11.179797 307 33833ft 413kts
19-Mar-19 07:43 59.807908 -11.327737 307 33821ft 412kts
19-Mar-19 07:44 59.894943 -11.475998 306 33810ft 412kts
19-Mar-19 07:45 59.981906 -11.625207 306 33799ft 411kts
19-Mar-19 07:46 60.068755 -11.775293 306 33789ft 414kts
19-Mar-19 07:47 60.155566 -11.926405 305 33779ft 412kts
19-Mar-19 07:48 60.242179 -12.078272 305 33770ft 413kts
19-Mar-19 07:49 60.328644 -12.230987 305 33761ft 413kts
19-Mar-19 07:50 60.415492 -12.385514 305 33753ft 417kts
19-Mar-19 07:51 60.502405 -12.541309 306 33745ft 419kts
19-Mar-19 07:52 60.590255 -12.699965 306 33738ft 422kts
19-Mar-19 07:53 60.677843 -12.859359 306 33731ft 423kts
19-Mar-19 07:54 60.765838 -13.020717 306 33723ft 426kts
19-Mar-19 07:55 60.853981 -13.183602 306 33717ft 427kts
19-Mar-19 07:56 60.942180 -13.347859 306 33708ft 428kts
19-Mar-19 07:57 61.030582 -13.513780 306 33703ft 431kts
19-Mar-19 07:58 61.119186 -13.681409 306 33696ft 432kts
19-Mar-19 07:59 61.208062 -13.850906 306 33690ft 436kts
19-Mar-19 07:59 61.282336 -13.993604 306 33684ft 438kts
19-Mar-19 08:01 61.387050 -14.196427 306 33676ft 442kts
19-Mar-19 08:02 61.476737 -14.371698 306 33669ft 442kts
19-Mar-19 08:02 61.551613 -14.519139 306 33532ft 441kts
19-Mar-19 08:03 61.640601 -14.695705 306 33514ft 441kts
19-Mar-19 08:05 61.744530 -14.903800 305 33506ft 441kts
19-Mar-19 08:05 61.818520 -15.053197 305 33501ft 441kts
19-Mar-19 08:06 61.907208 -15.233657 305 33497ft 443kts
19-Mar-19 08:08 62.010761 -15.446323 306 33487ft 447kts
19-Mar-19 08:08 62.085698 -15.601541 306 33486ft 453kts
19-Mar-19 08:09 62.175835 -15.789741 306 33482ft 451kts
19-Mar-19 08:10 62.265469 -15.978548 306 33477ft 451kts
19-Mar-19 08:11 62.354784 -16.168355 306 33472ft 451kts
19-Mar-19 08:12 62.443824 -16.359256 305 33457ft 452kts
19-Mar-19 08:13 62.532676 -16.551461 306 33454ft 452kts
19-Mar-19 08:14 62.621303 -16.744899 306 33451ft 453kts
19-Mar-19 08:15 62.710155 -16.940587 306 33448ft 453kts
19-Mar-19 08:16 62.798720 -17.137424 305 33444ft 455kts
19-Mar-19 08:17 62.887221 -17.335927 305 33439ft 455kts
19-Mar-19 08:18 62.975465 -17.535464 306 33429ft 455kts
19-Mar-19 08:19 63.062969 -17.735460 305 33342ft 456kts
19-Mar-19 08:20 63.151058 -17.938703 305 33321ft 459kts
19-Mar-19 08:21 63.239055 -18.143535 305 33254ft 459kts
19-Mar-19 08:22 63.326593 -18.349361 305 33179ft 456kts
19-Mar-19 08:23 63.413852 -18.556256 305 33187ft 459kts
19-Mar-19 08:24 63.500814 -18.764525 305 33186ft 458kts
19-Mar-19 08:25 63.587697 -18.974606 305 33193ft 458kts
19-Mar-19 08:26 63.673817 -19.184853 305 33210ft 458kts
19-Mar-19 08:27 63.760111 -19.397583 305 33209ft 459kts
19-Mar-19 08:28 63.846871 -19.611089 304 33206ft 461kts
19-Mar-19 08:29 63.932505 -19.828008 304 33202ft 461kts
19-Mar-19 08:30 64.017659 -20.046508 303 33197ft 460kts
19-Mar-19 08:31 64.099484 -20.270388 302 33190ft 459kts
19-Mar-19 08:32 64.181103 -20.496465 302 33168ft 460kts
19-Mar-19 08:33 64.263439 -20.721992 303 33159ft 463kts
19-Mar-19 08:34 64.345965 -20.949173 303 33160ft 462kts
19-Mar-19 08:35 64.427574 -21.178496 302 33157ft 462kts
19-Mar-19 08:36 64.509057 -21.410220 302 33155ft 462kts
19-Mar-19 08:37 64.589911 -21.642648 302 33151ft 462kts
19-Mar-19 08:38 64.670232 -21.875983 302 33144ft 462kts
19-Mar-19 08:39 64.750342 -22.111171 301 33127ft 462kts
19-Mar-19 08:40 64.830375 -22.348539 301 33114ft 465kts
19-Mar-19 08:41 64.909871 -22.586857 301 33091ft 465kts
19-Mar-19 08:42 64.989253 -22.827700 301 33042ft 464kts
19-Mar-19 08:43 65.068100 -23.069350 301 33028ft 465kts
19-Mar-19 08:44 65.146760 -23.313041 301 32992ft 465kts
19-Mar-19 08:45 65.225044 -23.558314 301 32991ft 466kts
19-Mar-19 08:46 65.303308 -23.806168 300 32998ft 466kts
19-Mar-19 08:47 65.380818 -24.054411 300 32996ft 467kts
19-Mar-19 08:48 65.458360 -24.305571 300 32996ft 467kts
19-Mar-19 08:49 65.535405 -24.557945 300 32997ft 467kts
19-Mar-19 08:50 65.611760 -24.810924 299 32999ft 466kts
19-Mar-19 08:51 65.687839 -25.065883 299 32970ft 467kts
19-Mar-19 08:52 65.763656 -25.322915 299 32967ft 466kts
19-Mar-19 08:53 65.838826 -25.580717 299 32965ft 467kts
19-Mar-19 08:54 65.913731 -25.840625 298 32963ft 468kts
19-Mar-19 08:55 65.988207 -26.102095 298 32961ft 467kts
19-Mar-19 08:56 66.062100 -26.364604 298 32959ft 467kts
19-Mar-19 08:57 66.135894 -26.629904 298 32990ft 468kts
19-Mar-19 08:58 66.209116 -26.896329 298 32990ft 470kts
19-Mar-19 08:59 66.282120 -27.165190 297 32989ft 470kts
19-Mar-19 09:00 66.354742 -27.435929 297 32988ft 470kts
19-Mar-19 09:01 66.426956 -27.708481 297 32986ft 470kts
19-Mar-19 09:02 66.498399 -27.981477 296 32984ft 470kts
19-Mar-19 09:03 66.569615 -28.257018 296 32982ft 471kts
19-Mar-19 09:04 66.640461 -28.534595 296 32979ft 471kts
19-Mar-19 09:05 66.710917 -28.814164 296 32976ft 472kts
19-Mar-19 09:06 66.780816 -29.095084 295 32973ft 472kts
19-Mar-19 09:07 66.850978 -29.377368 296 32969ft 473kts
19-Mar-19 09:08 66.920120 -29.662949 294 32966ft 472kts
19-Mar-19 09:09 66.988237 -29.950158 294 32962ft 473kts
19-Mar-19 09:10 67.058281 -30.236412 295 32967ft 476kts
19-Mar-19 09:11 67.128482 -30.525993 295 32967ft 477kts
19-Mar-19 09:12 67.198189 -30.815776 296 32967ft 478kts
19-Mar-19 09:13 67.269702 -31.105544 295 32960ft 478kts
19-Mar-19 09:14 67.339644 -31.399832 295 32958ft 479kts
19-Mar-19 09:15 67.408822 -31.695989 294 32956ft 480kts
19-Mar-19 09:16 67.477423 -31.993904 294 32954ft 480kts
19-Mar-19 09:17 67.545840 -32.295208 294 32952ft 481kts
19-Mar-19 09:18 67.613542 -32.597563 294 32951ft 481kts
19-Mar-19 09:19 67.680448 -32.900588 293 32951ft 481kts
19-Mar-19 09:20 67.747035 -33.206486 293 32951ft 481kts
19-Mar-19 09:21 67.813255 -33.515105 293 32951ft 483kts
19-Mar-19 09:22 67.879101 -33.826477 293 32952ft 484kts
19-Mar-19 09:23 67.944427 -34.139953 292 32953ft 485kts
19-Mar-19 09:24 68.009104 -34.454948 292 32954ft 484kts
19-Mar-19 09:25 68.073134 -34.771489 292 32959ft 486kts
19-Mar-19 09:26 68.136911 -35.091587 292 32964ft 487kts
19-Mar-19 09:27 68.200246 -35.414380 291 32969ft 488kts
19-Mar-19 09:28 68.262904 -35.738698 291 32975ft 488kts
19-Mar-19 09:29 68.324965 -36.065008 291 32982ft 487kts
19-Mar-19 09:30 68.386258 -36.392407 290 32990ft 488kts
19-Mar-19 09:31 68.447034 -36.722257 290 32999ft 489kts
19-Mar-19 09:32 68.507213 -37.054186 290 33008ft 489kts
19-Mar-19 09:33 68.566821 -37.388370 290 33076ft 490kts
19-Mar-19 09:34 68.625850 -37.724819 289 33090ft 489kts
19-Mar-19 09:35 68.684103 -38.062444 289 33105ft 489kts
19-Mar-19 09:36 68.741765 -38.402309 289 33120ft 491kts
19-Mar-19 09:37 68.798790 -38.744223 289 33136ft 491kts
19-Mar-19 09:38 68.855212 -39.088397 289 33153ft 491kts
19-Mar-19 09:39 68.912127 -39.433350 288 33171ft 491kts
19-Mar-19 09:40 68.966441 -39.782941 288 33189ft 491kts
19-Mar-19 09:41 69.018829 -40.134680 285 33208ft 490kts
19-Mar-19 09:42 69.064215 -40.492584 284 33226ft 489kts
19-Mar-19 09:43 69.108996 -40.852518 284 33245ft 490kts
19-Mar-19 09:44 69.156728 -41.211998 285 33264ft 490kts
19-Mar-19 09:45 69.202302 -41.572850 284 33283ft 490kts
19-Mar-19 09:46 69.246586 -41.935820 283 33303ft 490kts
19-Mar-19 09:47 69.290038 -42.300389 283 33321ft 490kts
19-Mar-19 09:48 69.332825 -42.667405 283 33390ft 490kts
19-Mar-19 09:50 69.374659 -43.034345 283 33407ft 490kts
19-Mar-19 09:51 69.415803 -43.403587 282 33429ft 490kts
19-Mar-19 09:52 69.456162 -43.774058 282 33391ft 491kts
19-Mar-19 09:53 69.495873 -44.147353 282 33408ft 491kts
19-Mar-19 09:54 69.534641 -44.520622 282 33425ft 491kts
19-Mar-19 09:55 69.572618 -44.895338 281 33440ft 489kts
19-Mar-19 09:56 69.609604 -45.269433 281 33454ft 489kts
19-Mar-19 09:57 69.646018 -45.647234 281 33551ft 490kts
19-Mar-19 09:58 69.681502 -46.025075 280 33561ft 491kts
19-Mar-19 09:59 69.716352 -46.406167 280 33560ft 490kts
19-Mar-19 10:00 69.750229 -46.786811 280 33558ft 489kts
19-Mar-19 10:01 69.783220 -47.167928 280 33558ft 489kts
19-Mar-19 10:02 69.815313 -47.549334 279 33557ft 489kts
19-Mar-19 10:03 69.846698 -47.933303 279 33556ft 490kts
19-Mar-19 10:04 69.877350 -48.319714 279 33555ft 489kts
19-Mar-19 10:05 69.906940 -48.704311 278 33554ft 488kts
19-Mar-19 10:05 69.931017 -49.026377 278 33554ft 487kts
19-Mar-19 10:07 69.964696 -49.476321 277 33550ft 487kts
19-Mar-19 10:08 69.990876 -49.864517 278 33553ft 488kts
19-Mar-19 10:09 70.007756 -50.256853 270 33549ft 485kts
19-Mar-19 10:09 70.014091 -50.584299 270 33549ft 485kts
19-Mar-19 10:11 70.022398 -51.044371 271 33553ft 485kts
19-Mar-19 10:12 70.033772 -51.437859 271 33551ft 485kts
19-Mar-19 10:12 70.040532 -51.765891 271 33544ft 484kts
19-Mar-19 10:13 70.047321 -52.158753 270 33541ft 483kts
19-Mar-19 10:15 70.054047 -52.617824 270 33536ft 484kts
19-Mar-19 10:15 70.058131 -52.946190 270 33534ft 485kts
19-Mar-19 10:16 70.062231 -53.340826 270 33524ft 485kts
19-Mar-19 10:17 70.065458 -53.735053 269 33519ft 484kts
19-Mar-19 10:18 70.067819 -54.129875 269 33513ft 483kts
19-Mar-19 10:19 70.069302 -54.523722 269 33506ft 484kts
19-Mar-19 10:20 70.069917 -54.918115 269 33499ft 484kts
19-Mar-19 10:21 70.069664 -55.312197 269 33492ft 484kts
19-Mar-19 10:22 70.068543 -55.707044 268 33484ft 482kts
19-Mar-19 10:23 70.066565 -56.098958 268 33475ft 482kts
19-Mar-19 10:24 70.063715 -56.492519 268 33467ft 482kts
19-Mar-19 10:25 70.060012 -56.884763 267 33458ft 483kts
19-Mar-19 10:26 70.055445 -57.277143 267 33450ft 482kts
19-Mar-19 10:27 70.050025 -57.668864 267 33443ft 481kts
19-Mar-19 10:28 70.043747 -58.060437 267 33435ft 481kts
19-Mar-19 10:29 70.036627 -58.451066 266 33425ft 481kts
19-Mar-19 10:30 70.028634 -58.842480 266 33418ft 482kts
19-Mar-19 10:31 70.021087 -59.232842 267 33413ft 481kts
19-Mar-19 10:32 70.010806 -59.622031 265 33409ft 480kts
19-Mar-19 10:33 69.999712 -60.011576 266 33406ft 479kts
19-Mar-19 10:34 69.992478 -60.399775 267 33403ft 479kts
19-Mar-19 10:35 69.984068 -60.787295 266 33403ft 478kts
19-Mar-19 10:36 69.976625 -61.175227 268 33405ft 477kts
19-Mar-19 10:37 69.968924 -61.561705 267 33403ft 478kts
19-Mar-19 10:38 69.959212 -61.948961 266 33446ft 478kts
19-Mar-19 10:39 69.948900 -62.335486 267 33459ft 478kts
19-Mar-19 10:40 69.938202 -62.720647 265 33465ft 478kts
19-Mar-19 10:41 69.925060 -63.106539 265 33467ft 477kts
19-Mar-19 10:42 69.892916 -63.480371 252 33469ft 480kts
19-Mar-19 10:43 69.848433 -63.846031 252 33470ft 481kts
19-Mar-19 10:44 69.804130 -64.211567 253 33527ft 481kts
19-Mar-19 10:45 69.762806 -64.579341 253 33528ft 480kts
19-Mar-19 10:46 69.718752 -64.943361 252 33525ft 480kts
19-Mar-19 10:47 69.673592 -65.306084 252 33522ft 480kts
19-Mar-19 10:48 69.627778 -65.666213 252 33520ft 480kts
19-Mar-19 10:49 69.581199 -66.024970 251 33474ft 481kts
19-Mar-19 10:50 69.533853 -66.382413 251 33470ft 481kts
19-Mar-19 10:51 69.485636 -66.739308 251 33467ft 480kts
19-Mar-19 10:52 69.436860 -67.093408 251 33455ft 480kts
19-Mar-19 10:53 69.387389 -67.445719 250 33451ft 481kts
19-Mar-19 10:54 69.337083 -67.797327 250 33443ft 481kts
19-Mar-19 10:55 69.286017 -68.147599 250 33436ft 481kts
19-Mar-19 10:56 69.234347 -68.495592 250 33427ft 481kts
19-Mar-19 10:57 69.182033 -68.841574 250 33423ft 481kts
19-Mar-19 10:58 69.128992 -69.186558 250 33412ft 481kts
19-Mar-19 10:59 69.075922 -69.531515 249 33400ft 481kts
19-Mar-19 11:00 69.020837 -69.871588 249 33389ft 481kts
19-Mar-19 11:01 68.960105 -70.204971 243 33378ft 484kts
19-Mar-19 11:02 68.892898 -70.530003 243 33369ft 485kts
19-Mar-19 11:03 68.825571 -70.853109 244 33363ft 485kts
19-Mar-19 11:04 68.760615 -71.180642 244 33363ft 485kts
19-Mar-19 11:05 68.693551 -71.503239 244 33361ft 486kts
19-Mar-19 11:06 68.625352 -71.824450 243 33364ft 487kts
19-Mar-19 11:07 68.556438 -72.143912 243 33371ft 488kts
19-Mar-19 11:08 68.486918 -72.461422 243 33382ft 488kts
19-Mar-19 11:09 68.416582 -72.777927 243 33396ft 488kts
19-Mar-19 11:10 68.345658 -73.092443 243 33415ft 488kts
19-Mar-19 11:11 68.274215 -73.404700 243 33437ft 489kts
19-Mar-19 11:12 68.202013 -73.715756 243 33462ft 489kts
19-Mar-19 11:13 68.129400 -74.024143 243 33488ft 489kts
19-Mar-19 11:14 68.056039 -74.331329 242 33514ft 489kts
19-Mar-19 11:15 67.982194 -74.636213 242 33541ft 489kts
19-Mar-19 11:16 67.907919 -74.938624 242 33566ft 488kts
19-Mar-19 11:17 67.832867 -75.240003 242 33587ft 488kts
19-Mar-19 11:18 67.757612 -75.538049 242 33608ft 488kts
19-Mar-19 11:19 67.681499 -75.835464 241 33625ft 489kts
19-Mar-19 11:20 67.605011 -76.130305 241 33640ft 489kts
19-Mar-19 11:21 67.527725 -76.424250 241 33652ft 489kts
19-Mar-19 11:22 67.450014 -76.715868 241 33671ft 488kts
19-Mar-19 11:23 67.371843 -77.005378 241 33678ft 490kts
19-Mar-19 11:24 67.293080 -77.293269 240 33686ft 490kts
19-Mar-19 11:25 67.213546 -77.580192 240 33693ft 490kts
19-Mar-19 11:26 67.133585 -77.864933 240 33698ft 491kts
19-Mar-19 11:27 67.053096 -78.147865 240 33794ft 492kts
19-Mar-19 11:28 66.971740 -78.430223 240 33808ft 491kts
19-Mar-19 11:29 66.890097 -78.709973 240 33811ft 491kts
19-Mar-19 11:30 66.808018 -78.987679 240 33813ft 492kts
19-Mar-19 11:31 66.725226 -79.264317 239 33836ft 492kts
19-Mar-19 11:32 66.642980 -79.539550 239 33838ft 492kts
19-Mar-19 11:33 66.558542 -79.812125 239 33840ft 493kts
19-Mar-19 11:34 66.471065 -80.078358 233 33843ft 498kts
19-Mar-19 11:35 66.372481 -80.324477 232 33846ft 502kts
19-Mar-19 11:36 66.273676 -80.569500 232 33849ft 501kts
19-Mar-19 11:37 66.176352 -80.816762 233 33852ft 502kts
19-Mar-19 11:38 66.077731 -81.061618 232 33868ft 503kts
19-Mar-19 11:39 65.978441 -81.304018 232 33879ft 501kts
19-Mar-19 11:40 65.879182 -81.543382 232 33885ft 502kts
19-Mar-19 11:41 65.779256 -81.781569 232 33888ft 502kts
19-Mar-19 11:42 65.679044 -82.017724 232 33952ft 503kts
19-Mar-19 11:43 65.577914 -82.253336 231 33953ft 502kts
19-Mar-19 11:44 65.476895 -82.486037 231 33952ft 502kts
19-Mar-19 11:45 65.375554 -82.716874 231 33950ft 503kts
19-Mar-19 11:46 65.273624 -82.946467 231 33948ft 503kts
19-Mar-19 11:47 65.171392 -83.174194 231 33946ft 503kts
19-Mar-19 11:48 65.068785 -83.400237 231 33947ft 503kts
19-Mar-19 11:49 64.965930 -83.624346 230 33952ft 503kts
19-Mar-19 11:50 64.862349 -83.847572 230 33949ft 503kts
19-Mar-19 11:51 64.758807 -84.068306 230 33945ft 503kts
19-Mar-19 11:52 64.654740 -84.287768 230 33944ft 503kts
19-Mar-19 11:54 64.550275 -84.505705 230 33944ft 503kts
19-Mar-19 11:55 64.445627 -84.721693 229 33945ft 504kts
19-Mar-19 11:56 64.340766 -84.935835 229 33947ft 504kts
19-Mar-19 11:57 64.234887 -85.149770 229 33951ft 506kts
19-Mar-19 11:58 64.128989 -85.361493 229 33952ft 505kts
19-Mar-19 11:59 64.022741 -85.571690 229 33957ft 505kts
19-Mar-19 12:00 63.916366 -85.779955 228 33962ft 505kts
19-Mar-19 12:01 63.809357 -85.987294 228 33968ft 505kts
19-Mar-19 12:02 63.702268 -86.192651 228 33975ft 505kts
19-Mar-19 12:03 63.594784 -86.396658 228 34048ft 505kts
19-Mar-19 12:04 63.487059 -86.599037 227 34078ft 505kts
19-Mar-19 12:05 63.379278 -86.799481 227 34079ft 503kts
19-Mar-19 12:06 63.271294 -86.998270 227 34071ft 503kts
19-Mar-19 12:07 63.163283 -87.195149 227 34068ft 502kts
19-Mar-19 12:08 63.055028 -87.390503 226 34069ft 503kts
19-Mar-19 12:09 62.946382 -87.584635 226 34069ft 502kts
19-Mar-19 12:10 62.837732 -87.776867 226 34059ft 502kts
19-Mar-19 12:10 62.746969 -87.936018 226 34058ft 502kts
19-Mar-19 12:12 62.619560 -88.157260 225 34058ft 501kts
19-Mar-19 12:13 62.510323 -88.344967 225 34056ft 501kts
19-Mar-19 12:13 62.419117 -88.500315 225 34055ft 501kts
19-Mar-19 12:14 62.309287 -88.685751 225 34053ft 501kts
19-Mar-19 12:16 62.180879 -88.900327 224 34061ft 501kts
19-Mar-19 12:16 62.089351 -89.051835 224 34059ft 501kts
19-Mar-19 12:17 61.978778 -89.233313 224 34056ft 500kts
19-Mar-19 12:18 61.868578 -89.412471 223 34052ft 499kts
19-Mar-19 12:19 61.758376 -89.590023 223 34049ft 498kts
19-Mar-19 12:20 61.647753 -89.767692 223 34050ft 498kts
19-Mar-19 12:21 61.536768 -89.942292 223 34062ft 499kts
19-Mar-19 12:22 61.427166 -90.120090 224 34056ft 497kts
19-Mar-19 12:23 61.318745 -90.298191 224 34051ft 496kts
19-Mar-19 12:24 61.210204 -90.475135 225 34046ft 494kts
19-Mar-19 12:25 61.102634 -90.652196 224 34014ft 494kts
19-Mar-19 12:26 60.994413 -90.826676 223 34002ft 494kts
19-Mar-19 12:27 60.885650 -91.000183 223 33997ft 494kts
19-Mar-19 12:28 60.777005 -91.171933 223 33991ft 494kts
19-Mar-19 12:29 60.668047 -91.342667 223 33984ft 494kts
19-Mar-19 12:30 60.558609 -91.512651 222 33976ft 493kts
19-Mar-19 12:31 60.449406 -91.680803 222 33968ft 494kts
19-Mar-19 12:32 60.339646 -91.848351 222 33958ft 494kts
19-Mar-19 12:33 60.229515 -92.015021 222 33948ft 494kts
19-Mar-19 12:34 60.119703 -92.179785 221 33942ft 494kts
19-Mar-19 12:35 60.009305 -92.344020 221 33953ft 494kts
19-Mar-19 12:36 59.898580 -92.507347 221 33944ft 495kts
19-Mar-19 12:37 59.786878 -92.670713 221 34328ft 505kts
19-Mar-19 12:38 59.672921 -92.835959 221 35790ft 507kts
19-Mar-19 12:39 59.558536 -93.000402 221 35909ft 508kts
19-Mar-19 12:40 59.443943 -93.163739 221 35897ft 510kts
19-Mar-19 12:41 59.328845 -93.326395 221 35887ft 510kts
19-Mar-19 12:42 59.213160 -93.488503 221 35876ft 511kts
19-Mar-19 12:43 59.097369 -93.649386 221 35868ft 512kts
19-Mar-19 12:44 58.981359 -93.809891 221 35863ft 512kts
19-Mar-19 12:45 58.864849 -93.969066 221 35860ft 513kts
19-Mar-19 12:46 58.746843 -94.126751 217 35856ft 521kts
19-Mar-19 12:47 58.615410 -94.248569 209 35859ft 528kts
19-Mar-19 12:48 58.481427 -94.364350 210 35858ft 528kts
19-Mar-19 12:49 58.347737 -94.481702 210 35855ft 528kts
19-Mar-19 12:50 58.213980 -94.598089 210 35851ft 529kts
19-Mar-19 12:51 58.079826 -94.713455 210 35843ft 530kts
19-Mar-19 12:52 57.945388 -94.828051 210 35835ft 532kts
19-Mar-19 12:53 57.809912 -94.942585 210 35825ft 534kts
19-Mar-19 12:54 57.674138 -95.056418 210 35810ft 536kts
19-Mar-19 12:55 57.537749 -95.169827 210 35802ft 537kts
19-Mar-19 12:56 57.400816 -95.282755 210 35790ft 538kts
19-Mar-19 12:57 57.263881 -95.394762 210 35779ft 539kts
19-Mar-19 12:58 57.126288 -95.506388 210 35769ft 540kts
19-Mar-19 12:59 56.988491 -95.617273 210 35761ft 540kts
19-Mar-19 13:00 56.850648 -95.727302 210 35755ft 542kts
19-Mar-19 13:01 56.712075 -95.837019 210 35752ft 543kts
19-Mar-19 13:02 56.573173 -95.946113 210 35751ft 544kts
19-Mar-19 13:03 56.433783 -96.054713 210 35752ft 546kts
19-Mar-19 13:04 56.294040 -96.162725 210 35749ft 546kts
19-Mar-19 13:05 56.154482 -96.269733 210 35753ft 546kts
19-Mar-19 13:06 56.014462 -96.376247 210 35758ft 546kts
19-Mar-19 13:07 55.874654 -96.481764 210 35763ft 546kts
19-Mar-19 13:08 55.734269 -96.586890 210 35763ft 546kts
19-Mar-19 13:09 55.594238 -96.690928 210 35765ft 547kts
19-Mar-19 13:10 55.453584 -96.794623 209 35767ft 548kts
19-Mar-19 13:11 55.312769 -96.897635 209 35768ft 547kts
19-Mar-19 13:12 55.172198 -96.999681 209 35768ft 549kts
19-Mar-19 13:13 55.030756 -97.101572 209 35775ft 548kts
19-Mar-19 13:14 54.890140 -97.202100 209 35777ft 548kts
19-Mar-19 13:15 54.748876 -97.302329 208 35779ft 549kts
19-Mar-19 13:16 54.607152 -97.402128 208 35780ft 549kts
19-Mar-19 13:17 54.465428 -97.501179 208 35780ft 550kts
19-Mar-19 13:18 54.323582 -97.599579 208 35780ft 550kts
19-Mar-19 13:19 54.181926 -97.697562 207 35782ft 550kts
19-Mar-19 13:20 54.039820 -97.794365 207 35780ft 550kts
19-Mar-19 13:21 53.906861 -97.915395 222 35780ft 537kts
19-Mar-19 13:22 53.785884 -98.061633 223 35782ft 533kts
19-Mar-19 13:23 53.664511 -98.205778 223 35788ft 535kts
19-Mar-19 13:24 53.542956 -98.350306 222 35797ft 535kts
19-Mar-19 13:25 53.420604 -98.493618 222 35806ft 536kts
19-Mar-19 13:26 53.298063 -98.635984 221 35816ft 536kts
19-Mar-19 13:27 53.175440 -98.777409 221 35824ft 535kts
19-Mar-19 13:28 53.052809 -98.917853 221 35832ft 536kts
19-Mar-19 13:29 52.929401 -99.058191 220 35840ft 537kts
19-Mar-19 13:30 52.806287 -99.197217 220 35846ft 536kts
19-Mar-19 13:31 52.682585 -99.335927 220 35853ft 537kts
19-Mar-19 13:32 52.559005 -99.473548 219 35859ft 538kts
19-Mar-19 13:33 52.434588 -99.611135 219 35866ft 538kts
19-Mar-19 13:34 52.310388 -99.747538 219 35900ft 538kts
19-Mar-19 13:35 52.185782 -99.883450 218 35906ft 539kts
19-Mar-19 13:36 52.061088 -100.018526 218 35919ft 539kts
19-Mar-19 13:37 51.935874 -100.153244 218 35928ft 539kts
19-Mar-19 13:38 51.810784 -100.286919 218 35931ft 539kts
19-Mar-19 13:39 51.685487 -100.419912 217 35934ft 539kts
19-Mar-19 13:40 51.560045 -100.552164 217 35933ft 539kts
19-Mar-19 13:41 51.434305 -100.683850 217 35938ft 539kts
19-Mar-19 13:42 51.308600 -100.814620 216 35940ft 539kts
19-Mar-19 13:43 51.182521 -100.944913 216 35952ft 539kts
19-Mar-19 13:44 51.056630 -101.074159 216 35972ft 539kts
19-Mar-19 13:45 50.930258 -101.203039 215 35983ft 540kts
19-Mar-19 13:46 50.803709 -101.331266 215 35993ft 540kts
19-Mar-19 13:47 50.676778 -101.459035 215 36001ft 540kts
19-Mar-19 13:48 50.549920 -101.585907 214 36010ft 541kts
19-Mar-19 13:49 50.422815 -101.712207 214 36018ft 541kts
19-Mar-19 13:50 50.295510 -101.837894 213 36028ft 541kts
19-Mar-19 13:51 50.167877 -101.963096 213 36059ft 541kts
19-Mar-19 13:52 50.039983 -102.087754 213 36076ft 540kts
19-Mar-19 13:53 49.912451 -102.211269 213 36099ft 540kts
19-Mar-19 13:54 49.784754 -102.334176 213 36114ft 541kts
19-Mar-19 13:55 49.656971 -102.456390 212 36126ft 540kts
19-Mar-19 13:57 49.528753 -102.578255 212 36142ft 540kts
19-Mar-19 13:58 49.400611 -102.699292 212 36146ft 539kts
19-Mar-19 13:59 49.272537 -102.819514 211 36146ft 540kts
19-Mar-19 14:00 49.144517 -102.938952 211 36151ft 539kts
19-Mar-19 14:01 49.016622 -103.057547 211 36160ft 539kts
19-Mar-19 14:02 48.888292 -103.175823 211 36169ft 538kts
19-Mar-19 14:03 48.760101 -103.293262 210 36173ft 538kts
19-Mar-19 14:04 48.631899 -103.410002 210 36187ft 538kts
19-Mar-19 14:05 48.503645 -103.526431 210 36201ft 537kts
19-Mar-19 14:06 48.375329 -103.641841 209 36221ft 536kts
19-Mar-19 14:07 48.247782 -103.758036 214 36229ft 536kts
19-Mar-19 14:08 48.131688 -103.898748 219 36232ft 537kts
19-Mar-19 14:09 48.016375 -104.039833 219 36242ft 536kts
19-Mar-19 14:10 47.901309 -104.180659 219 36253ft 536kts
19-Mar-19 14:11 47.785333 -104.321069 218 36260ft 536kts
19-Mar-19 14:12 47.669758 -104.459900 218 36263ft 535kts
19-Mar-19 14:13 47.553915 -104.598212 218 36271ft 534kts
19-Mar-19 14:14 47.437908 -104.735903 218 36283ft 533kts
19-Mar-19 14:15 47.322089 -104.872579 217 36294ft 533kts
19-Mar-19 14:16 47.205876 -105.008929 217 36298ft 532kts
19-Mar-19 14:16 47.109210 -105.121746 217 36298ft 533kts
19-Mar-19 14:18 46.973959 -105.278699 217 36304ft 531kts
19-Mar-19 14:18 46.877252 -105.390288 217 36308ft 531kts
19-Mar-19 14:19 46.761153 -105.523565 216 36316ft 530kts
19-Mar-19 14:21 46.625578 -105.678417 217 36324ft 531kts
19-Mar-19 14:21 46.528707 -105.788629 216 36328ft 530kts
19-Mar-19 14:22 46.412255 -105.919704 216 36329ft 529kts
19-Mar-19 14:23 46.296291 -106.050900 216 36329ft 529kts
19-Mar-19 14:24 46.180300 -106.181655 216 36328ft 529kts
19-Mar-19 14:25 46.064319 -106.312555 216 36327ft 529kts
19-Mar-19 14:26 45.948311 -106.443192 216 36326ft 527kts
19-Mar-19 14:27 45.832745 -106.572102 216 36327ft 526kts
19-Mar-19 14:28 45.717044 -106.700393 216 36328ft 524kts
19-Mar-19 14:29 45.601747 -106.827545 216 36328ft 523kts
19-Mar-19 14:30 45.486392 -106.954090 216 36338ft 522kts
19-Mar-19 14:31 45.371131 -107.079859 216 36336ft 521kts
19-Mar-19 14:32 45.256102 -107.204718 216 36337ft 520kts
19-Mar-19 14:33 45.140838 -107.329175 216 36337ft 519kts
19-Mar-19 14:34 45.026135 -107.452386 216 36335ft 518kts
19-Mar-19 14:35 44.911032 -107.575389 216 36333ft 516kts
19-Mar-19 14:36 44.796490 -107.697169 216 36328ft 515kts
19-Mar-19 14:37 44.682287 -107.817965 216 36326ft 514kts
19-Mar-19 14:38 44.568073 -107.938168 216 36322ft 512kts
19-Mar-19 14:39 44.453969 -108.057657 216 36320ft 511kts
19-Mar-19 14:40 44.339930 -108.176483 216 36321ft 511kts
19-Mar-19 14:41 44.225638 -108.294982 216 36327ft 510kts
19-Mar-19 14:42 44.111650 -108.412581 216 36330ft 510kts
19-Mar-19 14:43 43.997648 -108.529617 216 36332ft 510kts
19-Mar-19 14:44 43.884602 -108.645104 216 36336ft 507kts
19-Mar-19 14:45 43.770995 -108.760616 216 36339ft 504kts
19-Mar-19 14:46 43.657735 -108.875217 216 36341ft 503kts
19-Mar-19 14:47 43.544805 -108.988933 217 36340ft 502kts
19-Mar-19 14:48 43.432199 -109.101801 217 36353ft 501kts
19-Mar-19 14:49 43.319134 -109.214591 217 36355ft 500kts
19-Mar-19 14:50 43.206556 -109.326366 217 36360ft 499kts
19-Mar-19 14:51 43.094125 -109.437483 217 36367ft 497kts
19-Mar-19 14:52 42.981994 -109.547790 217 36373ft 496kts
19-Mar-19 14:53 42.869954 -109.657501 217 36384ft 494kts
19-Mar-19 14:54 42.758640 -109.766011 217 36389ft 492kts
19-Mar-19 14:55 42.647518 -109.873844 218 36388ft 489kts
19-Mar-19 14:56 42.536762 -109.980844 218 36389ft 487kts
19-Mar-19 14:57 42.426303 -110.087086 218 36389ft 486kts
19-Mar-19 14:58 42.316176 -110.192542 218 36382ft 485kts
19-Mar-19 14:59 42.205607 -110.297960 218 36377ft 485kts
19-Mar-19 15:00 42.095537 -110.402445 218 36376ft 485kts
19-Mar-19 15:01 41.985029 -110.506886 218 36382ft 485kts
19-Mar-19 15:02 41.875278 -110.610174 218 36380ft 480kts
19-Mar-19 15:03 41.765687 -110.712871 218 36379ft 479kts
19-Mar-19 15:04 41.656308 -110.814936 218 36379ft 478kts
19-Mar-19 15:05 41.547443 -110.916092 218 36367ft 477kts
19-Mar-19 15:06 41.438421 -111.016976 218 36356ft 476kts
19-Mar-19 15:07 41.329426 -111.117416 218 36349ft 475kts
19-Mar-19 15:08 41.220839 -111.217068 219 36344ft 474kts
19-Mar-19 15:09 41.112216 -111.316348 219 36324ft 473kts
19-Mar-19 15:10 41.012901 -111.407102 219 36332ft 473kts
19-Mar-19 15:11 40.903889 -111.505849 219 37972ft 471kts
19-Mar-19 15:12 40.795457 -111.603402 217 38265ft 471kts
19-Mar-19 15:13 40.678287 -111.682306 210 38261ft 475kts
19-Mar-19 15:14 40.559335 -111.757265 211 38262ft 472kts
19-Mar-19 15:15 40.441501 -111.832277 211 38261ft 470kts
19-Mar-19 15:16 40.324173 -111.907088 211 38261ft 468kts
19-Mar-19 15:17 40.207012 -111.981259 211 38259ft 468kts
19-Mar-19 15:18 40.089800 -112.055139 211 38260ft 466kts
19-Mar-19 15:19 39.972596 -112.128721 211 38258ft 467kts
19-Mar-19 15:20 39.855530 -112.201937 211 38254ft 467kts
19-Mar-19 15:21 39.738612 -112.274785 211 38243ft 465kts
19-Mar-19 15:22 39.621902 -112.347230 211 38237ft 464kts
19-Mar-19 15:23 39.505433 -112.419250 211 38231ft 463kts
19-Mar-19 15:24 39.389417 -112.490728 211 38229ft 461kts
19-Mar-19 15:25 39.274017 -112.561563 211 38229ft 459kts
19-Mar-19 15:26 39.158789 -112.632029 211 38229ft 457kts
19-Mar-19 15:27 39.043911 -112.702035 210 38224ft 456kts
19-Mar-19 15:28 38.928972 -112.771806 210 38219ft 455kts
19-Mar-19 15:29 38.814989 -112.840773 210 38210ft 454kts
19-Mar-19 15:30 38.700520 -112.909786 210 38195ft 453kts
19-Mar-19 15:31 38.586812 -112.978093 210 38184ft 452kts
19-Mar-19 15:32 38.473115 -113.046154 210 38180ft 449kts
19-Mar-19 15:33 38.359780 -113.113764 210 38179ft 449kts
19-Mar-19 15:34 38.246617 -113.181037 210 38176ft 448kts
19-Mar-19 15:35 38.133725 -113.248142 210 38169ft 448kts
19-Mar-19 15:36 38.020780 -113.314726 210 38163ft 448kts
19-Mar-19 15:37 37.908159 -113.381060 212 38156ft 442kts
19-Mar-19 15:38 37.803673 -113.461586 217 38154ft 438kts
19-Mar-19 15:39 37.700542 -113.544056 216 38147ft 438kts
19-Mar-19 15:40 37.597179 -113.625988 217 38128ft 438kts
19-Mar-19 15:41 37.494436 -113.707615 216 38114ft 437kts
19-Mar-19 15:42 37.391391 -113.788850 216 38100ft 437kts
19-Mar-19 15:43 37.288119 -113.869943 216 38091ft 436kts
19-Mar-19 15:44 37.185535 -113.950226 216 38089ft 435kts
19-Mar-19 15:45 37.082847 -114.030341 216 38088ft 434kts
19-Mar-19 15:46 36.980458 -114.110273 216 38089ft 432kts
19-Mar-19 15:47 36.878680 -114.189001 216 38072ft 430kts
19-Mar-19 15:48 36.776786 -114.267553 216 38069ft 431kts
19-Mar-19 15:49 36.674757 -114.345719 216 38061ft 427kts
19-Mar-19 15:50 36.573056 -114.422788 216 38051ft 427kts
19-Mar-19 15:51 36.471282 -114.499735 216 38049ft 428kts
19-Mar-19 15:52 36.370199 -114.577298 216 38038ft 426kts
19-Mar-19 15:53 36.285231 -114.642346 216 38036ft 427kts
19-Mar-19 15:54 36.184229 -114.720168 216 38021ft 428kts
19-Mar-19 15:55 36.083225 -114.797128 216 38027ft 426kts
19-Mar-19 15:56 35.979930 -114.870940 208 38020ft 430kts
19-Mar-19 15:57 35.867618 -114.920954 205 38017ft 426kts
19-Mar-19 15:58 35.755451 -114.970531 206 38030ft 429kts
19-Mar-19 15:59 35.643578 -115.019964 206 38032ft 427kts
19-Mar-19 16:00 35.531678 -115.069250 205 38012ft 427kts
19-Mar-19 16:01 35.418973 -115.116869 204 38003ft 427kts
19-Mar-19 16:02 35.306137 -115.163900 205 38006ft 427kts
19-Mar-19 16:03 35.193814 -115.210590 205 37989ft 426kts
19-Mar-19 16:04 35.081735 -115.257331 205 37965ft 423kts
19-Mar-19 16:05 34.969919 -115.303716 204 37973ft 424kts
19-Mar-19 16:07 34.857499 -115.350115 203 37965ft 424kts
19-Mar-19 16:08 34.745795 -115.396154 203 37969ft 422kts
19-Mar-19 16:09 34.634392 -115.441842 204 37969ft 422kts
19-Mar-19 16:10 34.523313 -115.487309 203 37972ft 419kts
19-Mar-19 16:11 34.413529 -115.532292 204 37974ft 417kts
19-Mar-19 16:12 34.303574 -115.577013 204 37432ft 408kts
19-Mar-19 16:13 34.196837 -115.620753 205 36094ft 395kts
19-Mar-19 16:14 34.096370 -115.668732 205 34809ft 385kts
19-Mar-19 16:15 33.997285 -115.715423 204 33451ft 375kts
19-Mar-19 16:16 33.901954 -115.760607 204 31654ft 361kts
19-Mar-19 16:17 33.810397 -115.805546 203 29872ft 349kts
19-Mar-19 16:18 33.721563 -115.848103 203 28115ft 339kts
19-Mar-19 16:19 33.634962 -115.888561 203 26353ft 330kts
19-Mar-19 16:20 33.550308 -115.928034 203 24609ft 321kts
19-Mar-19 16:21 33.483906 -115.996531 232 23926ft 332kts
19-Mar-19 16:22 33.432438 -116.087024 233 22407ft 326kts
19-Mar-19 16:23 33.381001 -116.175440 233 20657ft 318kts
19-Mar-19 16:23 33.337477 -116.244935 219 19185ft 310kts
19-Mar-19 16:25 33.250000 -116.302165 206 17336ft 306kts
19-Mar-19 16:26 33.173690 -116.346188 206 15932ft 303kts
19-Mar-19 16:26 33.110798 -116.382839 206 14812ft 300kts
19-Mar-19 16:27 33.036224 -116.426263 205 13494ft 298kts
19-Mar-19 16:29 32.958814 -116.490503 220 12022ft 285kts
19-Mar-19 16:29 32.919697 -116.530842 218 11193ft 274kts
19-Mar-19 16:30 32.863117 -116.587845 218 10006ft 268kts
19-Mar-19 16:31 32.805884 -116.645496 219 8804ft 266kts
19-Mar-19 16:32 32.757354 -116.710075 237 7635ft 262kts
19-Mar-19 16:33 32.723623 -116.784402 238 6503ft 249kts
19-Mar-19 16:34 32.694480 -116.856806 248 5364ft 236kts
19-Mar-19 16:35 32.674836 -116.925679 253 4353ft 200kts
19-Mar-19 16:36 32.682956 -116.986145 284 3461ft 186kts
19-Mar-19 16:37 32.697450 -117.041335 282 2604ft 161kts
19-Mar-19 16:38 32.709416 -117.090081 282 1815ft 148kts
19-Mar-19 16:39 32.720447 -117.135494 281 974ft 142kts
19-Mar-19 16:40 32.731300 -117.180252 281 68ft 139kts
19-Mar-19 16:41 32.736900 -117.204160 214 28ft 6kts
19-Mar-19 16:42 32.736033 -117.204963 274 28ft 10kts
19-Mar-19 16:43 32.735669 -117.206551 219 28ft 13kts
19-Mar-19 16:44 32.732857 -117.207056 191 28ft 5kts
19-Mar-19 16:45 32.732536 -117.207134 191 28ft 0kts
19-Mar-19 16:46 32.732536 -117.207134 191 28ft 0kts
19-Mar-19 16:47 32.732536 -117.207134 191 28ft 0kts
19-Mar-19 16:48 32.732536 -117.207134 191 28ft 0kts
19-Mar-19 16:49 32.732536 -117.207134 191 28ft 0kts
19-Mar-19 16:50 32.732536 -117.207134 191 28ft 0kts
19-Mar-19 16:51 32.732536 -117.207134 191 28ft 0kts
19-Mar-19 16:52 32.732536 -117.207134 191 28ft 0kts
19-Mar-19 16:53 32.732536 -117.207134 191 28ft 0kts
19-Mar-19 16:54 32.732536 -117.207134 191 28ft 0kts
19-Mar-19 16:55 32.732536 -117.207134 191 28ft 0kts

Navigation Log

Ident Type
Flight plan parsing failed, navigation log unavailable